sensor_id;sensor_type;location;lat;lon;timestamp;temperature;humidity
23335;DHT22;11839;48.598;8.870;2022-12-07T00:00:13;6.70;99.90
23335;DHT22;11839;48.598;8.870;2022-12-07T00:02:40;6.70;99.90
23335;DHT22;11839;48.598;8.870;2022-12-07T00:05:07;6.90;99.90
23335;DHT22;11839;48.598;8.870;2022-12-07T00:07:34;6.90;99.90
23335;DHT22;11839;48.598;8.870;2022-12-07T00:10:03;6.80;99.90
23335;DHT22;11839;48.598;8.870;2022-12-07T00:12:30;6.90;99.90
23335;DHT22;11839;48.598;8.870;2022-12-07T00:14:56;7.30;99.90
23335;DHT22;11839;48.598;8.870;2022-12-07T00:17:23;7.30;99.90
23335;DHT22;11839;48.598;8.870;2022-12-07T00:19:50;7.40;99.90
23335;DHT22;11839;48.598;8.870;2022-12-07T00:22:17;7.30;99.90
23335;DHT22;11839;48.598;8.870;2022-12-07T00:24:43;7.10;99.90
23335;DHT22;11839;48.598;8.870;2022-12-07T00:27:11;7.10;99.90
23335;DHT22;11839;48.598;8.870;2022-12-07T00:29:38;7.00;99.90
23335;DHT22;11839;48.598;8.870;2022-12-07T00:32:05;7.30;99.90
23335;DHT22;11839;48.598;8.870;2022-12-07T00:34:32;7.30;99.90
23335;DHT22;11839;48.598;8.870;2022-12-07T00:36:58;6.90;99.90
23335;DHT22;11839;48.598;8.870;2022-12-07T00:39:25;7.00;99.90
23335;DHT22;11839;48.598;8.870;2022-12-07T00:41:52;7.30;99.90
23335;DHT22;11839;48.598;8.870;2022-12-07T00:44:20;7.40;99.90
23335;DHT22;11839;48.598;8.870;2022-12-07T00:46:47;7.50;99.90
23335;DHT22;11839;48.598;8.870;2022-12-07T00:49:13;7.30;99.90
23335;DHT22;11839;48.598;8.870;2022-12-07T00:51:40;7.30;99.90
23335;DHT22;11839;48.598;8.870;2022-12-07T00:54:07;7.40;99.90
23335;DHT22;11839;48.598;8.870;2022-12-07T00:56:34;7.40;99.90
23335;DHT22;11839;48.598;8.870;2022-12-07T00:59:03;7.40;99.90
23335;DHT22;11839;48.598;8.870;2022-12-07T01:01:33;7.30;99.90
23335;DHT22;11839;48.598;8.870;2022-12-07T01:04:00;7.40;99.90
23335;DHT22;11839;48.598;8.870;2022-12-07T01:06:28;7.20;99.90
23335;DHT22;11839;48.598;8.870;2022-12-07T01:08:55;6.80;99.90
23335;DHT22;11839;48.598;8.870;2022-12-07T01:11:24;6.90;99.90
23335;DHT22;11839;48.598;8.870;2022-12-07T01:13:53;6.80;99.90
23335;DHT22;11839;48.598;8.870;2022-12-07T01:16:25;6.90;99.90
23335;DHT22;11839;48.598;8.870;2022-12-07T01:18:54;7.00;99.90
23335;DHT22;11839;48.598;8.870;2022-12-07T01:21:23;7.10;99.90
23335;DHT22;11839;48.598;8.870;2022-12-07T01:23:51;7.20;99.90
23335;DHT22;11839;48.598;8.870;2022-12-07T01:26:20;7.40;99.90
23335;DHT22;11839;48.598;8.870;2022-12-07T01:28:47;7.50;99.90
23335;DHT22;11839;48.598;8.870;2022-12-07T01:31:16;7.30;99.90
23335;DHT22;11839;48.598;8.870;2022-12-07T01:33:44;7.10;99.90
23335;DHT22;11839;48.598;8.870;2022-12-07T01:36:15;6.90;99.90
23335;DHT22;11839;48.598;8.870;2022-12-07T01:38:43;7.30;99.90
23335;DHT22;11839;48.598;8.870;2022-12-07T01:41:11;7.20;99.90
23335;DHT22;11839;48.598;8.870;2022-12-07T01:46:52;6.90;99.90
23335;DHT22;11839;48.598;8.870;2022-12-07T01:49:26;6.90;99.90
23335;DHT22;11839;48.598;8.870;2022-12-07T01:51:58;6.80;99.90
23335;DHT22;11839;48.598;8.870;2022-12-07T01:54:26;6.60;99.90
23335;DHT22;11839;48.598;8.870;2022-12-07T01:56:54;6.40;99.90
23335;DHT22;11839;48.598;8.870;2022-12-07T01:59:24;6.10;99.90
23335;DHT22;11839;48.598;8.870;2022-12-07T02:01:54;6.00;99.90
23335;DHT22;11839;48.598;8.870;2022-12-07T02:04:22;5.70;99.90
23335;DHT22;11839;48.598;8.870;2022-12-07T02:06:50;5.70;99.90
23335;DHT22;11839;48.598;8.870;2022-12-07T02:09:18;5.70;99.90
23335;DHT22;11839;48.598;8.870;2022-12-07T02:11:44;5.60;99.90
23335;DHT22;11839;48.598;8.870;2022-12-07T02:14:11;5.60;99.90
23335;DHT22;11839;48.598;8.870;2022-12-07T02:16:47;5.40;99.90
23335;DHT22;11839;48.598;8.870;2022-12-07T02:19:44;5.30;99.90
23335;DHT22;11839;48.598;8.870;2022-12-07T02:22:29;5.40;99.90
23335;DHT22;11839;48.598;8.870;2022-12-07T02:25:04;5.30;99.90
23335;DHT22;11839;48.598;8.870;2022-12-07T02:27:45;5.30;99.90
23335;DHT22;11839;48.598;8.870;2022-12-07T02:30:15;5.30;99.90
23335;DHT22;11839;48.598;8.870;2022-12-07T02:32:48;5.40;99.90
23335;DHT22;11839;48.598;8.870;2022-12-07T02:35:21;5.70;99.90
23335;DHT22;11839;48.598;8.870;2022-12-07T02:37:59;5.70;99.90
23335;DHT22;11839;48.598;8.870;2022-12-07T02:40:32;5.80;99.90
23335;DHT22;11839;48.598;8.870;2022-12-07T02:43:05;5.90;99.90
23335;DHT22;11839;48.598;8.870;2022-12-07T02:45:36;5.80;99.90
23335;DHT22;11839;48.598;8.870;2022-12-07T02:48:04;5.90;99.90
23335;DHT22;11839;48.598;8.870;2022-12-07T02:50:31;5.90;99.90
23335;DHT22;11839;48.598;8.870;2022-12-07T02:52:58;6.00;99.90
23335;DHT22;11839;48.598;8.870;2022-12-07T02:55:28;5.80;99.90
23335;DHT22;11839;48.598;8.870;2022-12-07T02:58:24;5.70;99.90
23335;DHT22;11839;48.598;8.870;2022-12-07T03:01:03;5.80;99.90
23335;DHT22;11839;48.598;8.870;2022-12-07T03:03:32;5.80;99.90
23335;DHT22;11839;48.598;8.870;2022-12-07T03:06:06;5.70;99.90
23335;DHT22;11839;48.598;8.870;2022-12-07T03:08:42;5.80;99.90
23335;DHT22;11839;48.598;8.870;2022-12-07T03:11:13;5.90;99.90
23335;DHT22;11839;48.598;8.870;2022-12-07T03:13:45;5.80;99.90
23335;DHT22;11839;48.598;8.870;2022-12-07T03:16:17;5.70;99.90
23335;DHT22;11839;48.598;8.870;2022-12-07T03:18:47;6.00;99.90
23335;DHT22;11839;48.598;8.870;2022-12-07T03:21:18;6.20;99.90
23335;DHT22;11839;48.598;8.870;2022-12-07T03:23:51;6.40;99.90
23335;DHT22;11839;48.598;8.870;2022-12-07T03:26:19;6.70;99.90
23335;DHT22;11839;48.598;8.870;2022-12-07T03:28:52;6.50;99.90
23335;DHT22;11839;48.598;8.870;2022-12-07T03:31:23;6.60;99.90
23335;DHT22;11839;48.598;8.870;2022-12-07T03:33:57;6.40;99.90
23335;DHT22;11839;48.598;8.870;2022-12-07T03:36:29;6.50;99.90
23335;DHT22;11839;48.598;8.870;2022-12-07T03:39:03;6.50;99.90
23335;DHT22;11839;48.598;8.870;2022-12-07T03:41:33;6.00;99.90
23335;DHT22;11839;48.598;8.870;2022-12-07T03:44:01;5.60;99.90
23335;DHT22;11839;48.598;8.870;2022-12-07T03:46:35;5.70;99.90
23335;DHT22;11839;48.598;8.870;2022-12-07T03:49:08;6.00;99.90
23335;DHT22;11839;48.598;8.870;2022-12-07T03:51:40;5.50;99.90
23335;DHT22;11839;48.598;8.870;2022-12-07T03:54:14;5.30;99.90
23335;DHT22;11839;48.598;8.870;2022-12-07T03:56:43;5.60;99.90
23335;DHT22;11839;48.598;8.870;2022-12-07T03:59:12;5.60;99.90
23335;DHT22;11839;48.598;8.870;2022-12-07T04:01:43;5.70;99.90
23335;DHT22;11839;48.598;8.870;2022-12-07T04:04:10;5.80;99.90
23335;DHT22;11839;48.598;8.870;2022-12-07T04:06:37;5.90;99.90
23335;DHT22;11839;48.598;8.870;2022-12-07T04:09:03;5.90;99.90
23335;DHT22;11839;48.598;8.870;2022-12-07T04:11:30;5.90;99.90
23335;DHT22;11839;48.598;8.870;2022-12-07T04:13:57;6.10;99.90
23335;DHT22;11839;48.598;8.870;2022-12-07T04:16:43;6.10;99.90
23335;DHT22;11839;48.598;8.870;2022-12-07T04:19:09;6.20;99.90
23335;DHT22;11839;48.598;8.870;2022-12-07T04:21:36;6.10;99.90
23335;DHT22;11839;48.598;8.870;2022-12-07T04:24:03;6.20;99.90
23335;DHT22;11839;48.598;8.870;2022-12-07T04:26:30;6.10;99.90
23335;DHT22;11839;48.598;8.870;2022-12-07T04:28:57;5.90;99.90
23335;DHT22;11839;48.598;8.870;2022-12-07T04:31:24;5.80;99.90
23335;DHT22;11839;48.598;8.870;2022-12-07T04:33:52;5.90;99.90
23335;DHT22;11839;48.598;8.870;2022-12-07T04:36:19;6.10;99.90
23335;DHT22;11839;48.598;8.870;2022-12-07T04:38:46;6.30;99.90
23335;DHT22;11839;48.598;8.870;2022-12-07T04:41:13;6.30;99.90
23335;DHT22;11839;48.598;8.870;2022-12-07T04:43:40;6.00;99.90
23335;DHT22;11839;48.598;8.870;2022-12-07T04:46:06;5.90;99.90
23335;DHT22;11839;48.598;8.870;2022-12-07T04:48:33;6.00;99.90
23335;DHT22;11839;48.598;8.870;2022-12-07T04:51:02;5.70;99.90
23335;DHT22;11839;48.598;8.870;2022-12-07T04:53:29;5.90;99.90
23335;DHT22;11839;48.598;8.870;2022-12-07T04:55:55;5.80;99.90
23335;DHT22;11839;48.598;8.870;2022-12-07T04:58:22;5.60;99.90
23335;DHT22;11839;48.598;8.870;2022-12-07T05:00:49;5.90;99.90
23335;DHT22;11839;48.598;8.870;2022-12-07T05:03:16;5.80;99.90
23335;DHT22;11839;48.598;8.870;2022-12-07T05:05:43;5.70;99.90
23335;DHT22;11839;48.598;8.870;2022-12-07T05:08:11;5.40;99.90
23335;DHT22;11839;48.598;8.870;2022-12-07T05:10:37;5.30;99.90
23335;DHT22;11839;48.598;8.870;2022-12-07T05:13:04;5.30;99.90
23335;DHT22;11839;48.598;8.870;2022-12-07T05:15:31;5.40;99.90
23335;DHT22;11839;48.598;8.870;2022-12-07T05:17:58;5.30;99.90
23335;DHT22;11839;48.598;8.870;2022-12-07T05:20:25;5.40;99.90
23335;DHT22;11839;48.598;8.870;2022-12-07T05:22:51;5.20;99.90
23335;DHT22;11839;48.598;8.870;2022-12-07T05:25:20;5.20;99.90
23335;DHT22;11839;48.598;8.870;2022-12-07T05:27:46;4.80;99.90
23335;DHT22;11839;48.598;8.870;2022-12-07T05:30:13;4.40;99.90
23335;DHT22;11839;48.598;8.870;2022-12-07T05:32:40;4.20;99.90
23335;DHT22;11839;48.598;8.870;2022-12-07T05:35:08;4.40;99.90
23335;DHT22;11839;48.598;8.870;2022-12-07T05:37:35;4.70;99.90
23335;DHT22;11839;48.598;8.870;2022-12-07T05:40:02;4.70;99.90
23335;DHT22;11839;48.598;8.870;2022-12-07T05:42:30;4.40;99.90
23335;DHT22;11839;48.598;8.870;2022-12-07T05:44:57;4.30;99.90
23335;DHT22;11839;48.598;8.870;2022-12-07T05:47:24;4.10;99.90
23335;DHT22;11839;48.598;8.870;2022-12-07T05:49:51;4.30;99.90
23335;DHT22;11839;48.598;8.870;2022-12-07T05:52:17;4.30;99.90
23335;DHT22;11839;48.598;8.870;2022-12-07T05:54:44;4.20;99.90
23335;DHT22;11839;48.598;8.870;2022-12-07T05:57:11;4.20;99.90
23335;DHT22;11839;48.598;8.870;2022-12-07T05:59:39;4.40;99.90
23335;DHT22;11839;48.598;8.870;2022-12-07T06:02:08;4.30;99.90
23335;DHT22;11839;48.598;8.870;2022-12-07T06:04:38;4.30;99.90
23335;DHT22;11839;48.598;8.870;2022-12-07T06:07:05;4.30;99.90
23335;DHT22;11839;48.598;8.870;2022-12-07T06:09:33;4.30;99.90
23335;DHT22;11839;48.598;8.870;2022-12-07T06:12:00;4.60;99.90
23335;DHT22;11839;48.598;8.870;2022-12-07T06:14:46;4.60;99.90
23335;DHT22;11839;48.598;8.870;2022-12-07T06:17:13;4.70;99.90
23335;DHT22;11839;48.598;8.870;2022-12-07T06:19:40;4.70;99.90
23335;DHT22;11839;48.598;8.870;2022-12-07T06:22:08;4.70;99.90
23335;DHT22;11839;48.598;8.870;2022-12-07T06:24:37;4.80;99.90
23335;DHT22;11839;48.598;8.870;2022-12-07T06:27:04;4.90;99.90
23335;DHT22;11839;48.598;8.870;2022-12-07T06:29:32;5.00;99.90
23335;DHT22;11839;48.598;8.870;2022-12-07T06:32:00;5.10;99.90
23335;DHT22;11839;48.598;8.870;2022-12-07T06:34:27;5.10;99.90
23335;DHT22;11839;48.598;8.870;2022-12-07T06:36:54;5.40;99.90
23335;DHT22;11839;48.598;8.870;2022-12-07T06:39:23;5.50;99.90
23335;DHT22;11839;48.598;8.870;2022-12-07T06:41:50;5.30;99.90
23335;DHT22;11839;48.598;8.870;2022-12-07T06:44:18;5.20;99.90
23335;DHT22;11839;48.598;8.870;2022-12-07T06:46:45;5.10;99.90
23335;DHT22;11839;48.598;8.870;2022-12-07T06:49:14;4.80;99.90
23335;DHT22;11839;48.598;8.870;2022-12-07T06:51:40;4.60;99.90
23335;DHT22;11839;48.598;8.870;2022-12-07T06:54:07;4.60;99.90
23335;DHT22;11839;48.598;8.870;2022-12-07T06:56:34;4.90;99.90
23335;DHT22;11839;48.598;8.870;2022-12-07T06:59:01;4.90;99.90
23335;DHT22;11839;48.598;8.870;2022-12-07T07:01:29;5.00;99.90
23335;DHT22;11839;48.598;8.870;2022-12-07T07:03:55;4.80;99.90
23335;DHT22;11839;48.598;8.870;2022-12-07T07:06:24;4.90;99.90
23335;DHT22;11839;48.598;8.870;2022-12-07T07:08:51;5.20;99.90
23335;DHT22;11839;48.598;8.870;2022-12-07T07:11:18;5.10;99.90
23335;DHT22;11839;48.598;8.870;2022-12-07T07:13:45;5.20;99.90
23335;DHT22;11839;48.598;8.870;2022-12-07T07:16:12;5.30;99.90
23335;DHT22;11839;48.598;8.870;2022-12-07T07:18:39;5.20;99.90
23335;DHT22;11839;48.598;8.870;2022-12-07T07:21:06;5.20;99.90
23335;DHT22;11839;48.598;8.870;2022-12-07T07:23:34;5.50;99.90
23335;DHT22;11839;48.598;8.870;2022-12-07T07:26:01;5.60;99.90
23335;DHT22;11839;48.598;8.870;2022-12-07T07:28:28;5.50;99.90
23335;DHT22;11839;48.598;8.870;2022-12-07T07:30:55;5.40;99.90
23335;DHT22;11839;48.598;8.870;2022-12-07T07:33:21;5.50;99.90
23335;DHT22;11839;48.598;8.870;2022-12-07T07:35:48;5.40;99.90
23335;DHT22;11839;48.598;8.870;2022-12-07T07:38:15;5.40;99.90
23335;DHT22;11839;48.598;8.870;2022-12-07T07:40:43;5.40;99.90
23335;DHT22;11839;48.598;8.870;2022-12-07T07:43:10;5.30;99.90
23335;DHT22;11839;48.598;8.870;2022-12-07T07:45:37;5.10;99.90
23335;DHT22;11839;48.598;8.870;2022-12-07T07:48:04;5.10;99.90
23335;DHT22;11839;48.598;8.870;2022-12-07T07:50:31;5.10;99.90
23335;DHT22;11839;48.598;8.870;2022-12-07T07:52:58;5.20;99.90
23335;DHT22;11839;48.598;8.870;2022-12-07T07:55:24;5.20;99.90
23335;DHT22;11839;48.598;8.870;2022-12-07T07:57:54;5.30;99.90
23335;DHT22;11839;48.598;8.870;2022-12-07T08:00:21;5.40;99.90
23335;DHT22;11839;48.598;8.870;2022-12-07T08:02:48;5.60;99.90
23335;DHT22;11839;48.598;8.870;2022-12-07T08:05:15;5.80;99.90
23335;DHT22;11839;48.598;8.870;2022-12-07T08:07:43;5.90;99.90
23335;DHT22;11839;48.598;8.870;2022-12-07T08:10:12;5.90;99.90
23335;DHT22;11839;48.598;8.870;2022-12-07T08:12:40;5.50;99.90
23335;DHT22;11839;48.598;8.870;2022-12-07T08:15:22;5.20;99.90
23335;DHT22;11839;48.598;8.870;2022-12-07T08:17:49;5.30;99.90
23335;DHT22;11839;48.598;8.870;2022-12-07T08:20:16;5.50;99.90
23335;DHT22;11839;48.598;8.870;2022-12-07T08:22:43;5.50;99.90
23335;DHT22;11839;48.598;8.870;2022-12-07T08:25:10;5.70;99.90
23335;DHT22;11839;48.598;8.870;2022-12-07T08:27:37;5.60;99.90
23335;DHT22;11839;48.598;8.870;2022-12-07T08:30:04;5.60;99.90
23335;DHT22;11839;48.598;8.870;2022-12-07T08:32:33;5.70;99.90
23335;DHT22;11839;48.598;8.870;2022-12-07T08:35:00;5.70;99.90
23335;DHT22;11839;48.598;8.870;2022-12-07T08:37:26;5.90;99.90
23335;DHT22;11839;48.598;8.870;2022-12-07T08:39:53;5.90;99.90
23335;DHT22;11839;48.598;8.870;2022-12-07T08:42:20;5.90;99.90
23335;DHT22;11839;48.598;8.870;2022-12-07T08:44:52;5.80;99.90
23335;DHT22;11839;48.598;8.870;2022-12-07T08:47:19;5.80;99.90
23335;DHT22;11839;48.598;8.870;2022-12-07T08:49:50;6.10;99.90
23335;DHT22;11839;48.598;8.870;2022-12-07T08:52:18;5.90;99.90
23335;DHT22;11839;48.598;8.870;2022-12-07T08:54:46;6.20;99.90
23335;DHT22;11839;48.598;8.870;2022-12-07T08:57:13;6.30;99.90
23335;DHT22;11839;48.598;8.870;2022-12-07T08:59:40;6.20;99.90
23335;DHT22;11839;48.598;8.870;2022-12-07T09:02:07;6.40;99.90
23335;DHT22;11839;48.598;8.870;2022-12-07T09:04:34;6.10;99.90
23335;DHT22;11839;48.598;8.870;2022-12-07T09:07:02;6.30;99.90
23335;DHT22;11839;48.598;8.870;2022-12-07T09:09:29;6.60;99.90
23335;DHT22;11839;48.598;8.870;2022-12-07T09:11:56;6.70;99.90
23335;DHT22;11839;48.598;8.870;2022-12-07T09:14:23;6.80;99.90
23335;DHT22;11839;48.598;8.870;2022-12-07T09:16:50;6.90;99.90
23335;DHT22;11839;48.598;8.870;2022-12-07T09:19:17;7.00;99.90
23335;DHT22;11839;48.598;8.870;2022-12-07T09:21:44;7.10;99.90
23335;DHT22;11839;48.598;8.870;2022-12-07T09:24:13;7.20;99.90
23335;DHT22;11839;48.598;8.870;2022-12-07T09:26:40;7.00;99.90
23335;DHT22;11839;48.598;8.870;2022-12-07T09:29:07;7.00;99.90
23335;DHT22;11839;48.598;8.870;2022-12-07T09:31:36;6.50;99.90
23335;DHT22;11839;48.598;8.870;2022-12-07T09:34:02;6.00;99.90
23335;DHT22;11839;48.598;8.870;2022-12-07T09:36:30;6.10;99.90
23335;DHT22;11839;48.598;8.870;2022-12-07T09:38:57;6.30;99.90
23335;DHT22;11839;48.598;8.870;2022-12-07T09:41:26;6.70;99.90
23335;DHT22;11839;48.598;8.870;2022-12-07T09:44:07;6.60;99.90
23335;DHT22;11839;48.598;8.870;2022-12-07T09:46:39;6.70;99.90
23335;DHT22;11839;48.598;8.870;2022-12-07T09:49:10;6.50;99.90
23335;DHT22;11839;48.598;8.870;2022-12-07T09:51:38;6.00;99.90
23335;DHT22;11839;48.598;8.870;2022-12-07T09:54:05;6.30;99.90
23335;DHT22;11839;48.598;8.870;2022-12-07T09:56:33;6.10;99.90
23335;DHT22;11839;48.598;8.870;2022-12-07T09:59:01;6.30;99.90
23335;DHT22;11839;48.598;8.870;2022-12-07T10:01:30;6.50;99.90
23335;DHT22;11839;48.598;8.870;2022-12-07T10:04:02;6.50;99.90
23335;DHT22;11839;48.598;8.870;2022-12-07T10:06:33;6.60;99.90
23335;DHT22;11839;48.598;8.870;2022-12-07T10:09:00;6.40;99.90
23335;DHT22;11839;48.598;8.870;2022-12-07T10:11:28;6.30;99.90
23335;DHT22;11839;48.598;8.870;2022-12-07T10:14:10;6.50;99.90
23335;DHT22;11839;48.598;8.870;2022-12-07T10:16:39;6.50;99.90
23335;DHT22;11839;48.598;8.870;2022-12-07T10:19:22;6.70;99.90
23335;DHT22;11839;48.598;8.870;2022-12-07T10:22:01;6.60;99.90
23335;DHT22;11839;48.598;8.870;2022-12-07T10:24:28;7.00;99.90
23335;DHT22;11839;48.598;8.870;2022-12-07T10:26:55;7.30;99.90
23335;DHT22;11839;48.598;8.870;2022-12-07T10:29:24;7.30;99.90
23335;DHT22;11839;48.598;8.870;2022-12-07T10:31:56;7.20;99.90
23335;DHT22;11839;48.598;8.870;2022-12-07T10:34:25;7.00;99.90
23335;DHT22;11839;48.598;8.870;2022-12-07T10:36:55;6.60;99.90
23335;DHT22;11839;48.598;8.870;2022-12-07T10:39:41;6.50;99.90
23335;DHT22;11839;48.598;8.870;2022-12-07T10:42:16;6.40;99.90
23335;DHT22;11839;48.598;8.870;2022-12-07T10:44:44;6.50;99.90
23335;DHT22;11839;48.598;8.870;2022-12-07T10:47:29;6.40;99.90
23335;DHT22;11839;48.598;8.870;2022-12-07T10:50:14;6.50;99.90
23335;DHT22;11839;48.598;8.870;2022-12-07T10:53:08;6.50;99.90
23335;DHT22;11839;48.598;8.870;2022-12-07T10:55:47;6.90;99.90
23335;DHT22;11839;48.598;8.870;2022-12-07T10:58:35;7.40;99.90
23335;DHT22;11839;48.598;8.870;2022-12-07T11:01:11;7.50;99.90
23335;DHT22;11839;48.598;8.870;2022-12-07T11:03:47;7.60;99.90
23335;DHT22;11839;48.598;8.870;2022-12-07T11:06:26;7.90;99.90
23335;DHT22;11839;48.598;8.870;2022-12-07T11:09:03;7.60;99.90
23335;DHT22;11839;48.598;8.870;2022-12-07T11:11:35;7.50;99.90
23335;DHT22;11839;48.598;8.870;2022-12-07T11:14:11;7.40;99.90
23335;DHT22;11839;48.598;8.870;2022-12-07T11:16:50;7.00;99.90
23335;DHT22;11839;48.598;8.870;2022-12-07T11:19:33;7.00;99.90
23335;DHT22;11839;48.598;8.870;2022-12-07T11:22:06;7.40;99.90
23335;DHT22;11839;48.598;8.870;2022-12-07T11:24:43;7.80;99.90
23335;DHT22;11839;48.598;8.870;2022-12-07T11:27:19;8.00;99.90
23335;DHT22;11839;48.598;8.870;2022-12-07T11:30:08;8.10;99.90
23335;DHT22;11839;48.598;8.870;2022-12-07T11:33:02;8.00;99.90
23335;DHT22;11839;48.598;8.870;2022-12-07T11:35:38;7.90;99.90
23335;DHT22;11839;48.598;8.870;2022-12-07T11:38:12;7.70;99.90
23335;DHT22;11839;48.598;8.870;2022-12-07T11:40:43;7.60;99.90
23335;DHT22;11839;48.598;8.870;2022-12-07T11:43:17;7.60;99.90
23335;DHT22;11839;48.598;8.870;2022-12-07T11:45:52;7.60;99.90
23335;DHT22;11839;48.598;8.870;2022-12-07T11:48:24;7.70;99.90
23335;DHT22;11839;48.598;8.870;2022-12-07T11:50:53;7.70;99.90
23335;DHT22;11839;48.598;8.870;2022-12-07T11:53:24;7.60;99.90
23335;DHT22;11839;48.598;8.870;2022-12-07T11:55:54;7.60;99.90
23335;DHT22;11839;48.598;8.870;2022-12-07T11:58:45;7.80;99.90
23335;DHT22;11839;48.598;8.870;2022-12-07T12:01:22;7.90;99.90
23335;DHT22;11839;48.598;8.870;2022-12-07T12:03:58;8.10;99.90
23335;DHT22;11839;48.598;8.870;2022-12-07T12:06:27;8.60;99.90
23335;DHT22;11839;48.598;8.870;2022-12-07T12:08:55;8.50;99.90
23335;DHT22;11839;48.598;8.870;2022-12-07T12:11:36;8.50;99.90
23335;DHT22;11839;48.598;8.870;2022-12-07T12:14:30;8.50;99.90
23335;DHT22;11839;48.598;8.870;2022-12-07T12:17:15;8.50;99.90
23335;DHT22;11839;48.598;8.870;2022-12-07T12:19:59;8.30;99.90
23335;DHT22;11839;48.598;8.870;2022-12-07T12:22:32;8.30;99.90
23335;DHT22;11839;48.598;8.870;2022-12-07T12:25:03;8.40;99.90
23335;DHT22;11839;48.598;8.870;2022-12-07T12:27:33;8.50;99.90
23335;DHT22;11839;48.598;8.870;2022-12-07T12:30:03;8.60;99.90
23335;DHT22;11839;48.598;8.870;2022-12-07T12:32:38;8.60;99.90
23335;DHT22;11839;48.598;8.870;2022-12-07T12:35:28;9.00;99.90
23335;DHT22;11839;48.598;8.870;2022-12-07T12:38:21;9.10;99.90
23335;DHT22;11839;48.598;8.870;2022-12-07T12:40:51;9.20;99.90
23335;DHT22;11839;48.598;8.870;2022-12-07T12:43:41;9.10;99.90
23335;DHT22;11839;48.598;8.870;2022-12-07T12:46:38;9.00;99.90
23335;DHT22;11839;48.598;8.870;2022-12-07T12:49:34;9.00;99.90
23335;DHT22;11839;48.598;8.870;2022-12-07T12:55:16;9.00;99.90
23335;DHT22;11839;48.598;8.870;2022-12-07T12:57:47;8.90;99.90
23335;DHT22;11839;48.598;8.870;2022-12-07T13:00:20;8.30;99.90
23335;DHT22;11839;48.598;8.870;2022-12-07T13:02:49;8.10;99.90
23335;DHT22;11839;48.598;8.870;2022-12-07T13:05:20;8.30;99.90
23335;DHT22;11839;48.598;8.870;2022-12-07T13:07:53;8.00;99.90
23335;DHT22;11839;48.598;8.870;2022-12-07T13:10:24;8.20;99.90
23335;DHT22;11839;48.598;8.870;2022-12-07T13:12:57;7.50;99.90
23335;DHT22;11839;48.598;8.870;2022-12-07T13:15:35;7.60;99.90
23335;DHT22;11839;48.598;8.870;2022-12-07T13:18:21;7.30;99.90
23335;DHT22;11839;48.598;8.870;2022-12-07T13:20:51;6.90;99.90
23335;DHT22;11839;48.598;8.870;2022-12-07T13:23:25;6.80;99.90
23335;DHT22;11839;48.598;8.870;2022-12-07T13:26:01;7.10;99.90
23335;DHT22;11839;48.598;8.870;2022-12-07T13:28:33;7.30;99.90
23335;DHT22;11839;48.598;8.870;2022-12-07T13:33:56;7.50;99.90
23335;DHT22;11839;48.598;8.870;2022-12-07T13:36:24;7.60;99.90
23335;DHT22;11839;48.598;8.870;2022-12-07T13:38:55;7.50;99.90
23335;DHT22;11839;48.598;8.870;2022-12-07T13:41:24;7.40;99.90
23335;DHT22;11839;48.598;8.870;2022-12-07T13:43:55;7.60;99.90
23335;DHT22;11839;48.598;8.870;2022-12-07T13:46:34;7.80;99.90
23335;DHT22;11839;48.598;8.870;2022-12-07T13:49:02;7.50;99.90
23335;DHT22;11839;48.598;8.870;2022-12-07T13:51:34;7.40;99.90
23335;DHT22;11839;48.598;8.870;2022-12-07T13:54:10;7.20;99.90
23335;DHT22;11839;48.598;8.870;2022-12-07T13:56:38;7.10;99.90
23335;DHT22;11839;48.598;8.870;2022-12-07T13:59:07;7.00;99.90
23335;DHT22;11839;48.598;8.870;2022-12-07T14:01:36;7.20;99.90
23335;DHT22;11839;48.598;8.870;2022-12-07T14:04:30;7.40;99.90
23335;DHT22;11839;48.598;8.870;2022-12-07T14:06:58;7.40;99.90
23335;DHT22;11839;48.598;8.870;2022-12-07T14:09:28;7.10;99.90
23335;DHT22;11839;48.598;8.870;2022-12-07T14:11:58;7.20;99.90
23335;DHT22;11839;48.598;8.870;2022-12-07T14:14:27;7.20;99.90
23335;DHT22;11839;48.598;8.870;2022-12-07T14:16:57;7.30;99.90
23335;DHT22;11839;48.598;8.870;2022-12-07T14:19:45;7.10;99.90
23335;DHT22;11839;48.598;8.870;2022-12-07T14:22:25;6.80;99.90
23335;DHT22;11839;48.598;8.870;2022-12-07T14:25:00;7.10;99.90
23335;DHT22;11839;48.598;8.870;2022-12-07T14:27:32;7.10;99.90
23335;DHT22;11839;48.598;8.870;2022-12-07T14:30:00;7.10;99.90
23335;DHT22;11839;48.598;8.870;2022-12-07T14:32:29;7.30;99.90
23335;DHT22;11839;48.598;8.870;2022-12-07T14:35:02;7.50;99.90
23335;DHT22;11839;48.598;8.870;2022-12-07T14:37:30;7.40;99.90
23335;DHT22;11839;48.598;8.870;2022-12-07T14:39:58;7.20;99.90
23335;DHT22;11839;48.598;8.870;2022-12-07T14:42:27;7.10;99.90
23335;DHT22;11839;48.598;8.870;2022-12-07T14:44:55;7.00;99.90
23335;DHT22;11839;48.598;8.870;2022-12-07T14:47:22;6.90;99.90
23335;DHT22;11839;48.598;8.870;2022-12-07T14:49:49;7.10;99.90
23335;DHT22;11839;48.598;8.870;2022-12-07T14:52:18;7.10;99.90
23335;DHT22;11839;48.598;8.870;2022-12-07T14:54:46;7.20;99.90
23335;DHT22;11839;48.598;8.870;2022-12-07T14:57:15;7.40;99.90
23335;DHT22;11839;48.598;8.870;2022-12-07T14:59:42;7.30;99.90
23335;DHT22;11839;48.598;8.870;2022-12-07T15:02:11;7.30;99.90
23335;DHT22;11839;48.598;8.870;2022-12-07T15:04:39;7.10;99.90
23335;DHT22;11839;48.598;8.870;2022-12-07T15:07:12;6.90;99.90
23335;DHT22;11839;48.598;8.870;2022-12-07T15:09:39;6.70;99.90
23335;DHT22;11839;48.598;8.870;2022-12-07T15:12:06;6.90;99.90
23335;DHT22;11839;48.598;8.870;2022-12-07T15:14:34;7.00;99.90
23335;DHT22;11839;48.598;8.870;2022-12-07T15:17:01;7.30;99.90
23335;DHT22;11839;48.598;8.870;2022-12-07T15:19:28;7.30;99.90
23335;DHT22;11839;48.598;8.870;2022-12-07T15:21:55;7.00;99.90
23335;DHT22;11839;48.598;8.870;2022-12-07T15:24:23;7.20;99.90
23335;DHT22;11839;48.598;8.870;2022-12-07T15:26:53;7.20;99.90
23335;DHT22;11839;48.598;8.870;2022-12-07T15:29:20;7.20;99.90
23335;DHT22;11839;48.598;8.870;2022-12-07T15:31:50;7.00;99.90
23335;DHT22;11839;48.598;8.870;2022-12-07T15:34:16;7.00;99.90
23335;DHT22;11839;48.598;8.870;2022-12-07T15:36:44;6.90;99.90
23335;DHT22;11839;48.598;8.870;2022-12-07T15:39:11;6.70;99.90
23335;DHT22;11839;48.598;8.870;2022-12-07T15:41:38;6.80;99.90
23335;DHT22;11839;48.598;8.870;2022-12-07T15:44:05;6.70;99.90
23335;DHT22;11839;48.598;8.870;2022-12-07T15:46:50;6.80;99.90
23335;DHT22;11839;48.598;8.870;2022-12-07T15:49:18;6.90;99.90
23335;DHT22;11839;48.598;8.870;2022-12-07T15:51:45;7.00;99.90
23335;DHT22;11839;48.598;8.870;2022-12-07T15:54:16;6.60;99.90
23335;DHT22;11839;48.598;8.870;2022-12-07T15:56:42;6.50;99.90
23335;DHT22;11839;48.598;8.870;2022-12-07T15:59:09;6.40;99.90
23335;DHT22;11839;48.598;8.870;2022-12-07T16:01:36;6.20;99.90
23335;DHT22;11839;48.598;8.870;2022-12-07T16:04:04;6.10;99.90
23335;DHT22;11839;48.598;8.870;2022-12-07T16:06:31;6.30;99.90
23335;DHT22;11839;48.598;8.870;2022-12-07T16:08:58;6.10;99.90
23335;DHT22;11839;48.598;8.870;2022-12-07T16:11:25;6.10;99.90
23335;DHT22;11839;48.598;8.870;2022-12-07T16:13:52;6.20;99.90